Downstream station:
SHEF ID: JBCO2 Beaty Creek near Jay, OK
STATION TYPE:
STAGE RIV-FLOW WTR-TEMP DIS-OXY PH CONDUCT TURBIDITY BAT-LOAD
ft cfs F mg/l su umho/cm NTU volt
Ccp-Rev Ccp-Rev Ccp-Rev Ccp-Rev Ccp-Rev Ccp-Rev Ccp-Rev Ccp-Rev
(US/Central)
04/08 00:00 5.22 26 56.23 8.70 7.60 260 ---- 12.57
04/08 01:00 5.21 26 55.99 8.64 7.59 261 ---- 12.49
04/08 02:00 5.20 25 55.87 8.60 7.58 261 ---- 12.49
04/08 03:00 5.20 25 55.74 8.56 7.58 262 ---- 12.49
04/08 04:00 5.20 25 55.58 8.54 7.57 262 ---- 12.41
04/08 05:00 5.20 25 55.44 8.52 7.57 263 ---- 12.41
04/08 06:00 5.19 24 55.29 8.52 7.57 263 ---- 12.41
04/08 07:00 5.19 24 55.24 8.50 7.57 263 ---- 12.41
04/08 08:00 5.19 24 55.26 8.83 7.60 263 ---- 12.41
04/08 09:00 5.18 24 55.33 9.73 7.72 262 ---- 12.49
04/08 10:00 5.18 24 55.78 10.56 7.87 260 ---- 12.81
04/08 11:00 5.19 24 56.73 10.81 7.94 259 ---- 13.53
04/08 12:00 5.18 24 57.88 11.01 7.99 259 ---- 13.84
04/08 13:00 5.18 24 58.96 11.16 8.03 258 ---- 13.60
04/08 14:00 5.17 23 59.81 11.24 8.06 257 ---- 13.53
04/08 15:00 5.17 23 60.21 11.28 8.08 257 ---- 13.44
04/08 16:00 5.17 23 60.10 11.25 8.08 256 ---- 13.21
04/08 17:00 5.17 23 59.61 11.21 8.07 256 ---- 12.89
04/08 18:00 5.18 24 59.05 10.97 8.02 256 ---- 12.81
04/08 19:00 5.17 23 58.35 10.32 7.88 256 ---- 12.73
04/08 20:00 5.17 23 57.85 9.52 7.72 258 ---- 12.65
04/08 21:00 5.17 23 57.49 9.04 7.62 259 ---- 12.65
04/08 22:00 5.17 23 57.22 8.80 7.59 260 ---- 12.57
04/08 23:00 5.16 22 57.00 8.68 7.57 261 ---- 12.57